createdAt,value
2022-07-25T00:01:00.337Z,7.83
2022-07-25T00:05:02.953Z,8.77
2022-07-25T00:09:05.107Z,8.87
2022-07-25T00:13:06.856Z,11.47
2022-07-25T00:17:08.676Z,17.83
2022-07-25T00:21:10.508Z,12.77
2022-07-25T00:25:12.321Z,23.50
2022-07-25T00:29:14.051Z,19.20
2022-07-25T00:33:15.885Z,24.20
2022-07-25T00:37:17.658Z,22.50
2022-07-25T00:41:19.459Z,22.53
2022-07-25T00:45:23.583Z,27.53
2022-07-25T00:49:25.426Z,34.30
2022-07-25T00:53:27.190Z,38.20
2022-07-25T00:57:29.029Z,42.47
2022-07-25T01:01:30.868Z,48.67
2022-07-25T01:05:32.758Z,48.33
2022-07-25T01:09:34.506Z,48.90
2022-07-25T01:13:36.268Z,48.00
2022-07-25T01:17:38.016Z,46.13
2022-07-25T01:21:40.474Z,48.87
2022-07-25T01:25:42.329Z,50.43
2022-07-25T01:29:44.094Z,49.93
2022-07-25T01:33:46.040Z,53.93
2022-07-25T01:37:47.811Z,56.83
2022-07-25T01:41:49.564Z,57.30
2022-07-25T01:45:51.572Z,58.00
2022-07-25T01:49:53.333Z,59.07
2022-07-25T01:53:55.120Z,59.30
2022-07-25T01:57:56.888Z,57.43
2022-07-25T02:01:59.770Z,58.83
2022-07-25T02:06:06.957Z,55.07
2022-07-25T02:10:09.283Z,58.43
2022-07-25T02:14:11.063Z,56.73
2022-07-25T02:18:12.851Z,58.57
2022-07-25T02:22:14.618Z,58.27
2022-07-25T02:26:16.371Z,57.27
2022-07-25T02:30:18.172Z,59.93
2022-07-25T02:34:20.602Z,66.33
2022-07-25T02:38:22.329Z,64.63
2022-07-25T02:42:24.140Z,69.63
2022-07-25T02:46:26.157Z,73.50
2022-07-25T02:50:28.152Z,84.83
2022-07-25T02:54:30.075Z,78.90
2022-07-25T02:58:31.818Z,90.83
2022-07-25T03:02:40.531Z,88.47
2022-07-25T03:06:48.501Z,86.73
2022-07-25T03:10:56.510Z,86.03
2022-07-25T03:15:12.507Z,85.93
2022-07-25T03:19:14.447Z,89.80
2022-07-25T03:23:19.578Z,92.10
2022-07-25T03:27:21.389Z,92.50
2022-07-25T03:31:23.194Z,90.70
2022-07-25T03:35:26.143Z,90.57
2022-07-25T03:39:28.565Z,95.17
2022-07-25T03:43:31.283Z,93.43
2022-07-25T03:47:33.084Z,93.07
2022-07-25T03:51:34.879Z,93.70
2022-07-25T03:55:36.822Z,97.47
2022-07-25T03:59:38.980Z,99.27
2022-07-25T04:03:40.713Z,98.40
2022-07-25T04:07:42.720Z,97.47
2022-07-25T04:11:44.567Z,98.67
2022-07-25T04:15:46.563Z,96.03
2022-07-25T04:19:48.423Z,95.47
2022-07-25T04:23:50.868Z,91.60
2022-07-25T04:27:53.096Z,96.60
2022-07-25T04:31:55.109Z,95.13
2022-07-25T04:35:57.006Z,93.87
2022-07-25T04:39:58.818Z,88.90
2022-07-25T04:44:00.556Z,88.80
2022-07-25T04:48:04.367Z,84.30
2022-07-25T04:52:06.234Z,81.97
2022-07-25T04:56:08.360Z,81.00
2022-07-25T05:00:11.168Z,78.90
2022-07-25T05:04:14.357Z,77.20
2022-07-25T05:08:16.113Z,76.68
2022-07-25T05:12:18.068Z,76.53
2022-07-25T05:16:19.981Z,71.28
2022-07-25T05:20:22.019Z,72.85
2022-07-25T05:24:23.812Z,73.70
2022-07-25T05:28:25.852Z,70.50
2022-07-25T05:32:27.901Z,68.00
2022-07-25T05:36:29.676Z,67.40
2022-07-25T05:40:31.522Z,65.78
2022-07-25T05:44:33.452Z,62.28
2022-07-25T05:48:35.340Z,60.67
2022-07-25T05:52:37.253Z,62.40
2022-07-25T05:56:39.059Z,59.42
2022-07-25T06:00:40.942Z,57.15
2022-07-25T06:04:42.694Z,54.88
2022-07-25T06:08:44.624Z,55.33
2022-07-25T06:12:47.237Z,53.35
2022-07-25T06:16:49.342Z,50.13
2022-07-25T06:20:51.245Z,51.08
2022-07-25T06:24:53.098Z,50.15
2022-07-25T06:28:54.956Z,47.03
2022-07-25T06:32:57.973Z,46.92
2022-07-25T06:36:59.796Z,42.03
2022-07-25T06:41:01.574Z,42.20
2022-07-25T06:45:05.396Z,39.72
2022-07-25T06:49:07.397Z,35.17
2022-07-25T06:53:11.256Z,35.95
2022-07-25T06:57:14.424Z,32.67
2022-07-25T07:01:16.412Z,31.55
2022-07-25T07:05:18.598Z,28.17
2022-07-25T07:09:20.383Z,24.35
2022-07-25T07:13:24.648Z,22.42
2022-07-25T07:17:26.493Z,20.33
2022-07-25T07:21:28.416Z,17.23
2022-07-25T07:25:31.299Z,15.88
2022-07-25T07:29:33.174Z,14.57
2022-07-25T07:33:35.302Z,12.00
2022-07-25T07:37:42.993Z,11.98
2022-07-25T07:41:45.371Z,10.63
2022-07-25T07:45:47.357Z,9.77
2022-07-25T07:49:50.458Z,8.45
2022-07-25T07:54:10.825Z,7.70
2022-07-25T07:58:17.024Z,6.43
2022-07-25T08:02:19.405Z,5.97
2022-07-25T08:06:21.329Z,6.25
2022-07-25T08:10:25.329Z,6.95
2022-07-25T08:14:27.203Z,6.40
2022-07-25T08:18:35.172Z,6.40
2022-07-25T08:22:47.747Z,6.35
2022-07-25T08:26:49.524Z,6.40
2022-07-25T08:30:51.607Z,6.60
2022-07-25T08:34:53.481Z,6.53
2022-07-25T08:38:55.281Z,6.35
2022-07-25T08:42:58.464Z,6.65
2022-07-25T08:47:00.334Z,6.18
2022-07-25T08:51:02.118Z,6.68
2022-07-25T08:55:13.598Z,6.18
2022-07-25T08:59:15.459Z,6.25
2022-07-25T09:03:17.413Z,6.85
2022-07-25T09:07:34.667Z,6.43
2022-07-25T09:11:40.928Z,6.65
2022-07-25T09:15:54.004Z,6.50
2022-07-25T09:19:57.272Z,6.32
2022-07-25T09:24:16.449Z,6.35
2022-07-25T09:28:19.462Z,6.75
2022-07-25T09:32:22.732Z,6.70
2022-07-25T09:36:24.521Z,6.47
2022-07-25T09:40:26.354Z,6.40
2022-07-25T09:44:30.482Z,6.30
2022-07-25T09:48:33.012Z,6.50
2022-07-25T09:52:35.470Z,6.13
2022-07-25T09:56:37.361Z,6.47
2022-07-25T10:00:40.697Z,6.47
2022-07-25T10:05:12.180Z,6.53
2022-07-25T10:09:14.373Z,6.70
2022-07-25T10:13:18.121Z,6.13
2022-07-25T10:17:22.947Z,6.43
2022-07-25T10:21:38.166Z,6.57
2022-07-25T10:25:40.079Z,6.72
2022-07-25T10:29:42.291Z,6.93
2022-07-25T10:33:44.185Z,6.32
2022-07-25T10:37:49.088Z,6.35
2022-07-25T10:42:00.439Z,6.63
2022-07-25T10:46:02.272Z,6.57
2022-07-25T10:50:21.913Z,6.53
2022-07-25T10:54:26.441Z,6.50
2022-07-25T10:58:28.253Z,6.60
2022-07-25T11:02:30.242Z,7.00
2022-07-25T11:06:36.813Z,6.75
2022-07-25T11:10:38.616Z,6.38
2022-07-25T11:14:42.834Z,6.38
2022-07-25T11:18:44.802Z,6.50
2022-07-25T11:22:54.704Z,6.45
2022-07-25T11:26:56.883Z,6.65
2022-07-25T11:31:04.810Z,6.72
2022-07-25T11:35:06.950Z,6.40
2022-07-25T11:39:09.256Z,6.22
2022-07-25T11:43:23.261Z,6.15
2022-07-25T11:47:33.011Z,6.13
2022-07-25T11:51:38.799Z,6.38
2022-07-25T11:55:42.314Z,6.88
2022-07-25T11:59:45.337Z,6.10
2022-07-25T12:03:47.219Z,6.38
2022-07-25T12:07:53.269Z,5.97
2022-07-25T12:12:03.483Z,5.80
2022-07-25T12:16:05.830Z,5.55
2022-07-25T12:20:19.096Z,6.10
2022-07-25T12:24:20.928Z,6.47
2022-07-25T12:28:22.729Z,6.03
2022-07-25T12:32:24.602Z,6.05
2022-07-25T12:36:26.468Z,6.20
2022-07-25T12:40:28.494Z,6.65
2022-07-25T12:44:30.431Z,6.60
2022-07-25T12:48:32.596Z,6.30
2022-07-25T12:52:34.737Z,6.03
2022-07-25T12:56:36.562Z,6.63
2022-07-25T13:00:38.565Z,6.13
2022-07-25T13:04:40.524Z,6.55
2022-07-25T13:08:42.402Z,7.35
2022-07-25T13:12:44.592Z,7.18
2022-07-25T13:16:47.153Z,6.72
2022-07-25T13:20:49.555Z,7.00
2022-07-25T13:24:52.022Z,6.57
2022-07-25T13:28:59.429Z,6.65
2022-07-25T13:33:01.804Z,6.90
2022-07-25T13:37:04.635Z,7.43
2022-07-25T13:41:06.993Z,6.75
2022-07-25T13:45:09.981Z,7.20
2022-07-25T13:49:12.248Z,6.70
2022-07-25T13:53:14.350Z,6.95
2022-07-25T13:57:16.219Z,7.28
2022-07-25T14:01:18.149Z,6.70
2022-07-25T14:05:20.058Z,6.82
2022-07-25T14:09:22.082Z,7.18
2022-07-25T14:13:23.962Z,6.72
2022-07-25T14:17:29.817Z,6.97
2022-07-25T14:21:32.235Z,7.13
2022-07-25T14:25:34.580Z,7.25
2022-07-25T14:29:38.068Z,6.40
2022-07-25T14:33:40.600Z,6.25
2022-07-25T14:37:42.585Z,6.72
2022-07-25T14:41:46.089Z,6.22
2022-07-25T14:45:48.022Z,6.15
2022-07-25T14:49:49.896Z,6.68
2022-07-25T14:53:53.435Z,6.63
2022-07-25T14:57:55.366Z,6.30
2022-07-25T15:01:57.200Z,6.63
2022-07-25T15:05:58.988Z,6.95
2022-07-25T15:10:00.835Z,6.88
2022-07-25T15:14:02.638Z,6.55
2022-07-25T15:18:04.614Z,6.50
2022-07-25T15:22:06.454Z,6.60
2022-07-25T15:26:08.425Z,6.50
2022-07-25T15:30:10.952Z,6.72
2022-07-25T15:34:12.784Z,6.28
2022-07-25T15:38:15.890Z,6.53
2022-07-25T15:42:17.802Z,6.35
2022-07-25T15:46:19.606Z,6.18
2022-07-25T15:50:22.036Z,7.00
2022-07-25T15:54:27.710Z,6.30
2022-07-25T15:58:31.625Z,6.43
2022-07-25T16:02:33.424Z,6.63
2022-07-25T16:06:35.361Z,6.90
2022-07-25T16:10:37.302Z,5.72
2022-07-25T16:14:39.147Z,6.40
2022-07-25T16:18:40.936Z,6.05
2022-07-25T16:22:42.882Z,5.82
2022-07-25T16:26:45.026Z,6.40
2022-07-25T16:30:47.019Z,6.00
2022-07-25T16:34:49.479Z,6.07
2022-07-25T16:38:53.428Z,6.22
2022-07-25T16:42:58.716Z,6.20
2022-07-25T16:47:00.597Z,6.50
2022-07-25T16:51:02.639Z,6.15
2022-07-25T16:55:05.457Z,5.82
2022-07-25T16:59:08.261Z,5.68
2022-07-25T17:03:10.302Z,5.78
2022-07-25T17:07:12.408Z,6.10
2022-07-25T17:11:14.378Z,6.20
2022-07-25T17:15:23.736Z,6.05
2022-07-25T17:19:30.653Z,6.10
2022-07-25T17:23:33.390Z,5.85
2022-07-25T17:27:43.127Z,5.97
2022-07-25T17:31:47.982Z,6.25
2022-07-25T17:35:51.821Z,6.13
2022-07-25T17:39:56.344Z,5.65
2022-07-25T17:43:58.821Z,5.97
2022-07-25T17:48:03.071Z,6.20
2022-07-25T17:52:05.705Z,6.13
2022-07-25T17:56:08.776Z,5.97
2022-07-25T18:00:15.165Z,6.07
2022-07-25T18:04:20.959Z,5.88
2022-07-25T18:08:25.944Z,6.13
2022-07-25T18:12:31.282Z,7.68
2022-07-25T18:16:33.578Z,7.80
2022-07-25T18:20:35.549Z,7.55
2022-07-25T18:24:38.774Z,7.70
2022-07-25T18:28:40.723Z,8.00
2022-07-25T18:32:43.040Z,7.25
2022-07-25T18:36:44.982Z,7.28
2022-07-25T18:40:46.769Z,7.65
2022-07-25T18:44:48.936Z,7.35
2022-07-25T18:48:51.473Z,7.47
2022-07-25T18:52:56.743Z,7.43
2022-07-25T18:56:58.724Z,8.10
2022-07-25T19:01:10.310Z,7.63
2022-07-25T19:05:12.377Z,7.20
2022-07-25T19:09:16.627Z,7.57
2022-07-25T19:13:46.577Z,7.93
2022-07-25T19:17:43.104Z,8.05
2022-07-25T19:21:47.986Z,7.82
2022-07-25T19:25:55.353Z,8.20
2022-07-25T19:29:57.347Z,8.48
2022-07-25T19:33:59.214Z,8.35
2022-07-25T19:38:01.180Z,7.93
2022-07-25T19:42:07.454Z,8.25
2022-07-25T19:46:09.359Z,8.20
2022-07-25T19:50:11.412Z,9.00
2022-07-25T19:54:13.430Z,8.02
2022-07-25T19:58:15.849Z,8.90
2022-07-25T20:02:17.814Z,8.25
2022-07-25T20:06:39.673Z,7.60
2022-07-25T20:10:41.440Z,7.30
2022-07-25T20:14:43.509Z,8.05
2022-07-25T20:18:45.401Z,8.43
2022-07-25T20:22:48.071Z,9.52
2022-07-25T20:26:52.935Z,8.45
2022-07-25T20:30:56.029Z,9.73
2022-07-25T20:34:57.921Z,9.80
2022-07-25T20:38:59.785Z,9.48
2022-07-25T20:43:04.048Z,9.32
2022-07-25T20:47:06.004Z,9.77
2022-07-25T20:51:07.863Z,9.25
2022-07-25T20:55:09.881Z,9.23
2022-07-25T20:59:11.976Z,9.70
2022-07-25T21:03:13.844Z,9.13
2022-07-25T21:07:16.883Z,10.55
2022-07-25T21:11:18.825Z,10.10
2022-07-25T21:15:20.651Z,9.73
2022-07-25T21:19:22.419Z,10.07
2022-07-25T21:23:26.473Z,9.73
2022-07-25T21:27:28.310Z,10.02
2022-07-25T21:31:30.151Z,10.00
2022-07-25T21:35:31.946Z,9.30
2022-07-25T21:39:51.148Z,9.60
2022-07-25T21:43:52.997Z,9.10
2022-07-25T21:47:54.854Z,9.47
2022-07-25T21:51:56.774Z,10.15
2022-07-25T21:55:59.995Z,10.50
2022-07-25T22:00:01.766Z,10.30
2022-07-25T22:04:04.193Z,10.50
2022-07-25T22:08:06.160Z,9.60
2022-07-25T22:12:08.511Z,10.02
2022-07-25T22:16:10.438Z,10.10
2022-07-25T22:20:12.719Z,10.90
2022-07-25T22:24:14.448Z,10.80
2022-07-25T22:28:16.329Z,10.45
2022-07-25T22:32:18.076Z,10.43
2022-07-25T22:36:19.858Z,10.10
2022-07-25T22:40:21.704Z,9.98
2022-07-25T22:44:23.571Z,8.93
2022-07-25T22:48:25.324Z,8.68
2022-07-25T22:52:29.412Z,8.95
2022-07-25T22:56:31.329Z,8.68
2022-07-25T23:00:33.100Z,9.45
2022-07-25T23:04:35.060Z,8.77
2022-07-25T23:08:36.916Z,9.40
2022-07-25T23:12:38.948Z,9.20
2022-07-25T23:16:40.829Z,19.27
2022-07-25T23:20:42.761Z,20.30
2022-07-25T23:24:44.688Z,21.10
2022-07-25T23:28:46.463Z,22.53
2022-07-25T23:32:48.303Z,22.57
2022-07-25T23:36:50.099Z,23.50
2022-07-25T23:40:54.092Z,26.43
2022-07-25T23:44:55.875Z,24.90
2022-07-25T23:48:58.851Z,21.90
2022-07-25T23:53:00.762Z,18.20
2022-07-25T23:57:02.639Z,16.80
